sensor_id;sensor_type;location;lat;lon;timestamp;P1;durP1;ratioP1;P2;durP2;ratioP2
78296;SDS011;67555;47.660;19.622;2023-04-24T00:00:04;19.33;;;8.73;;
78296;SDS011;67555;47.660;19.622;2023-04-24T00:02:31;16.33;;;8.48;;
78296;SDS011;67555;47.660;19.622;2023-04-24T00:04:57;15.52;;;8.25;;
78296;SDS011;67555;47.660;19.622;2023-04-24T00:07:29;16.48;;;7.93;;
78296;SDS011;67555;47.660;19.622;2023-04-24T00:09:55;14.07;;;7.18;;
78296;SDS011;67555;47.660;19.622;2023-04-24T00:12:21;14.90;;;7.03;;
78296;SDS011;67555;47.660;19.622;2023-04-24T00:14:46;13.68;;;7.68;;
78296;SDS011;67555;47.660;19.622;2023-04-24T00:17:12;14.93;;;7.40;;
78296;SDS011;67555;47.660;19.622;2023-04-24T00:19:38;16.55;;;8.43;;
78296;SDS011;67555;47.660;19.622;2023-04-24T00:22:04;13.80;;;7.65;;
78296;SDS011;67555;47.660;19.622;2023-04-24T00:24:30;15.40;;;8.85;;
78296;SDS011;67555;47.660;19.622;2023-04-24T00:26:56;12.93;;;7.32;;
78296;SDS011;67555;47.660;19.622;2023-04-24T00:29:22;15.32;;;8.85;;
78296;SDS011;67555;47.660;19.622;2023-04-24T00:31:48;16.10;;;8.60;;
78296;SDS011;67555;47.660;19.622;2023-04-24T00:34:14;14.45;;;9.07;;
78296;SDS011;67555;47.660;19.622;2023-04-24T00:36:40;13.45;;;7.82;;
78296;SDS011;67555;47.660;19.622;2023-04-24T00:39:05;16.10;;;9.38;;
78296;SDS011;67555;47.660;19.622;2023-04-24T00:41:33;12.50;;;8.07;;
78296;SDS011;67555;47.660;19.622;2023-04-24T00:44:00;16.02;;;7.90;;
78296;SDS011;67555;47.660;19.622;2023-04-24T00:46:25;18.23;;;7.78;;
78296;SDS011;67555;47.660;19.622;2023-04-24T00:48:51;16.50;;;7.88;;
78296;SDS011;67555;47.660;19.622;2023-04-24T00:51:17;15.70;;;8.48;;
78296;SDS011;67555;47.660;19.622;2023-04-24T00:53:43;17.10;;;8.05;;
78296;SDS011;67555;47.660;19.622;2023-04-24T00:56:09;15.40;;;8.00;;
78296;SDS011;67555;47.660;19.622;2023-04-24T00:58:35;12.80;;;7.10;;
78296;SDS011;67555;47.660;19.622;2023-04-24T01:01:01;13.30;;;7.22;;
78296;SDS011;67555;47.660;19.622;2023-04-24T01:03:32;15.80;;;8.00;;
78296;SDS011;67555;47.660;19.622;2023-04-24T01:05:59;14.30;;;8.20;;
78296;SDS011;67555;47.660;19.622;2023-04-24T01:08:25;19.13;;;7.53;;
78296;SDS011;67555;47.660;19.622;2023-04-24T01:10:53;14.02;;;7.68;;
78296;SDS011;67555;47.660;19.622;2023-04-24T01:13:20;14.80;;;8.50;;
78296;SDS011;67555;47.660;19.622;2023-04-24T01:15:46;14.48;;;8.13;;
78296;SDS011;67555;47.660;19.622;2023-04-24T01:18:12;15.98;;;7.18;;
78296;SDS011;67555;47.660;19.622;2023-04-24T01:20:42;13.27;;;7.85;;
78296;SDS011;67555;47.660;19.622;2023-04-24T01:23:10;14.15;;;8.43;;
78296;SDS011;67555;47.660;19.622;2023-04-24T01:25:36;14.75;;;7.57;;
78296;SDS011;67555;47.660;19.622;2023-04-24T01:28:02;14.23;;;8.27;;
78296;SDS011;67555;47.660;19.622;2023-04-24T01:30:28;15.50;;;7.80;;
78296;SDS011;67555;47.660;19.622;2023-04-24T01:32:55;15.00;;;7.55;;
78296;SDS011;67555;47.660;19.622;2023-04-24T01:35:21;13.38;;;8.02;;
78296;SDS011;67555;47.660;19.622;2023-04-24T01:37:47;16.55;;;7.90;;
78296;SDS011;67555;47.660;19.622;2023-04-24T01:40:13;16.90;;;8.63;;
78296;SDS011;67555;47.660;19.622;2023-04-24T01:42:40;13.65;;;7.70;;
78296;SDS011;67555;47.660;19.622;2023-04-24T01:45:07;18.30;;;8.73;;
78296;SDS011;67555;47.660;19.622;2023-04-24T01:47:35;14.65;;;8.57;;
78296;SDS011;67555;47.660;19.622;2023-04-24T01:50:02;15.52;;;8.10;;
78296;SDS011;67555;47.660;19.622;2023-04-24T01:52:28;15.25;;;8.45;;
78296;SDS011;67555;47.660;19.622;2023-04-24T01:54:56;13.27;;;8.27;;
78296;SDS011;67555;47.660;19.622;2023-04-24T01:57:25;15.55;;;8.75;;
78296;SDS011;67555;47.660;19.622;2023-04-24T01:59:52;11.38;;;7.22;;
78296;SDS011;67555;47.660;19.622;2023-04-24T02:02:17;14.32;;;8.23;;
78296;SDS011;67555;47.660;19.622;2023-04-24T02:04:46;14.40;;;8.73;;
78296;SDS011;67555;47.660;19.622;2023-04-24T02:07:12;14.15;;;8.73;;
78296;SDS011;67555;47.660;19.622;2023-04-24T02:09:37;18.80;;;8.93;;
78296;SDS011;67555;47.660;19.622;2023-04-24T02:12:03;22.40;;;10.85;;
78296;SDS011;67555;47.660;19.622;2023-04-24T02:14:29;21.30;;;10.10;;
78296;SDS011;67555;47.660;19.622;2023-04-24T02:16:55;20.63;;;9.45;;
78296;SDS011;67555;47.660;19.622;2023-04-24T02:19:20;20.88;;;8.65;;
78296;SDS011;67555;47.660;19.622;2023-04-24T02:21:46;23.17;;;9.30;;
78296;SDS011;67555;47.660;19.622;2023-04-24T02:24:12;19.10;;;9.70;;
78296;SDS011;67555;47.660;19.622;2023-04-24T02:26:37;16.73;;;9.32;;
78296;SDS011;67555;47.660;19.622;2023-04-24T02:29:03;18.92;;;9.80;;
78296;SDS011;67555;47.660;19.622;2023-04-24T02:31:29;16.58;;;8.80;;
78296;SDS011;67555;47.660;19.622;2023-04-24T02:33:56;17.77;;;8.85;;
78296;SDS011;67555;47.660;19.622;2023-04-24T02:36:22;15.98;;;8.20;;
78296;SDS011;67555;47.660;19.622;2023-04-24T02:38:48;21.25;;;9.55;;
78296;SDS011;67555;47.660;19.622;2023-04-24T02:41:13;18.23;;;8.90;;
78296;SDS011;67555;47.660;19.622;2023-04-24T02:43:39;14.35;;;8.80;;
78296;SDS011;67555;47.660;19.622;2023-04-24T02:46:05;15.05;;;8.75;;
78296;SDS011;67555;47.660;19.622;2023-04-24T02:48:30;14.00;;;7.57;;
78296;SDS011;67555;47.660;19.622;2023-04-24T02:50:56;16.40;;;9.43;;
78296;SDS011;67555;47.660;19.622;2023-04-24T02:53:22;16.40;;;8.23;;
78296;SDS011;67555;47.660;19.622;2023-04-24T02:55:48;17.60;;;7.30;;
78296;SDS011;67555;47.660;19.622;2023-04-24T02:58:14;12.40;;;8.48;;
78296;SDS011;67555;47.660;19.622;2023-04-24T03:00:40;19.50;;;9.45;;
78296;SDS011;67555;47.660;19.622;2023-04-24T03:03:06;13.57;;;8.30;;
78296;SDS011;67555;47.660;19.622;2023-04-24T03:05:32;14.27;;;8.38;;
78296;SDS011;67555;47.660;19.622;2023-04-24T03:07:59;15.55;;;8.40;;
78296;SDS011;67555;47.660;19.622;2023-04-24T03:10:26;14.43;;;7.95;;
78296;SDS011;67555;47.660;19.622;2023-04-24T03:12:52;16.63;;;8.82;;
78296;SDS011;67555;47.660;19.622;2023-04-24T03:15:17;16.42;;;8.45;;
78296;SDS011;67555;47.660;19.622;2023-04-24T03:17:43;16.88;;;9.63;;
78296;SDS011;67555;47.660;19.622;2023-04-24T03:20:09;15.98;;;9.20;;
78296;SDS011;67555;47.660;19.622;2023-04-24T03:22:35;17.48;;;10.18;;
78296;SDS011;67555;47.660;19.622;2023-04-24T03:25:01;21.73;;;9.13;;
78296;SDS011;67555;47.660;19.622;2023-04-24T03:27:26;20.98;;;9.65;;
78296;SDS011;67555;47.660;19.622;2023-04-24T03:29:53;13.50;;;9.00;;
78296;SDS011;67555;47.660;19.622;2023-04-24T03:32:23;19.52;;;9.38;;
78296;SDS011;67555;47.660;19.622;2023-04-24T03:34:49;16.15;;;8.52;;
78296;SDS011;67555;47.660;19.622;2023-04-24T03:37:15;14.98;;;9.00;;
78296;SDS011;67555;47.660;19.622;2023-04-24T03:39:41;16.05;;;8.55;;
78296;SDS011;67555;47.660;19.622;2023-04-24T03:42:09;21.55;;;9.63;;
78296;SDS011;67555;47.660;19.622;2023-04-24T03:44:35;15.20;;;9.00;;
78296;SDS011;67555;47.660;19.622;2023-04-24T03:47:01;18.10;;;9.35;;
78296;SDS011;67555;47.660;19.622;2023-04-24T03:49:27;19.52;;;10.02;;
78296;SDS011;67555;47.660;19.622;2023-04-24T03:51:52;19.27;;;9.90;;
78296;SDS011;67555;47.660;19.622;2023-04-24T03:54:19;21.35;;;11.13;;
78296;SDS011;67555;47.660;19.622;2023-04-24T03:56:45;19.17;;;10.38;;
78296;SDS011;67555;47.660;19.622;2023-04-24T03:59:11;21.52;;;10.18;;
78296;SDS011;67555;47.660;19.622;2023-04-24T04:01:36;19.35;;;10.38;;
78296;SDS011;67555;47.660;19.622;2023-04-24T04:04:03;21.60;;;9.43;;
78296;SDS011;67555;47.660;19.622;2023-04-24T04:06:29;21.35;;;10.80;;
78296;SDS011;67555;47.660;19.622;2023-04-24T04:08:56;17.70;;;9.63;;
78296;SDS011;67555;47.660;19.622;2023-04-24T04:11:22;19.88;;;9.63;;
78296;SDS011;67555;47.660;19.622;2023-04-24T04:13:48;17.35;;;9.65;;
78296;SDS011;67555;47.660;19.622;2023-04-24T04:16:14;18.13;;;8.98;;
78296;SDS011;67555;47.660;19.622;2023-04-24T04:18:42;17.92;;;10.65;;
78296;SDS011;67555;47.660;19.622;2023-04-24T04:21:08;23.25;;;10.40;;
78296;SDS011;67555;47.660;19.622;2023-04-24T04:23:33;21.70;;;10.85;;
78296;SDS011;67555;47.660;19.622;2023-04-24T04:26:00;22.38;;;10.00;;
78296;SDS011;67555;47.660;19.622;2023-04-24T04:28:26;17.33;;;9.82;;
78296;SDS011;67555;47.660;19.622;2023-04-24T04:30:52;21.25;;;10.38;;
78296;SDS011;67555;47.660;19.622;2023-04-24T04:33:20;21.42;;;9.88;;
78296;SDS011;67555;47.660;19.622;2023-04-24T04:35:46;19.52;;;11.10;;
78296;SDS011;67555;47.660;19.622;2023-04-24T04:38:17;21.38;;;11.02;;
78296;SDS011;67555;47.660;19.622;2023-04-24T04:40:43;18.67;;;10.55;;
78296;SDS011;67555;47.660;19.622;2023-04-24T04:43:09;20.15;;;10.38;;
78296;SDS011;67555;47.660;19.622;2023-04-24T04:45:36;17.95;;;9.98;;
78296;SDS011;67555;47.660;19.622;2023-04-24T04:48:04;17.17;;;9.90;;
78296;SDS011;67555;47.660;19.622;2023-04-24T04:50:32;18.63;;;9.82;;
78296;SDS011;67555;47.660;19.622;2023-04-24T04:52:58;19.45;;;9.70;;
78296;SDS011;67555;47.660;19.622;2023-04-24T04:55:23;25.50;;;10.32;;
78296;SDS011;67555;47.660;19.622;2023-04-24T04:57:49;22.25;;;10.50;;
78296;SDS011;67555;47.660;19.622;2023-04-24T05:00:16;22.02;;;10.63;;
78296;SDS011;67555;47.660;19.622;2023-04-24T05:02:41;21.02;;;9.90;;
78296;SDS011;67555;47.660;19.622;2023-04-24T05:05:07;19.58;;;10.02;;
78296;SDS011;67555;47.660;19.622;2023-04-24T05:07:33;19.17;;;9.98;;
78296;SDS011;67555;47.660;19.622;2023-04-24T05:09:59;16.73;;;9.82;;
78296;SDS011;67555;47.660;19.622;2023-04-24T05:12:25;17.95;;;8.85;;
78296;SDS011;67555;47.660;19.622;2023-04-24T05:14:51;17.02;;;8.88;;
78296;SDS011;67555;47.660;19.622;2023-04-24T05:17:17;20.45;;;8.85;;
78296;SDS011;67555;47.660;19.622;2023-04-24T05:19:44;18.00;;;10.13;;
78296;SDS011;67555;47.660;19.622;2023-04-24T05:22:11;18.63;;;10.00;;
78296;SDS011;67555;47.660;19.622;2023-04-24T05:24:37;16.42;;;9.35;;
78296;SDS011;67555;47.660;19.622;2023-04-24T05:27:03;23.05;;;10.27;;
78296;SDS011;67555;47.660;19.622;2023-04-24T05:29:29;19.10;;;9.98;;
78296;SDS011;67555;47.660;19.622;2023-04-24T05:31:56;18.08;;;9.73;;
78296;SDS011;67555;47.660;19.622;2023-04-24T05:34:22;20.30;;;10.73;;
78296;SDS011;67555;47.660;19.622;2023-04-24T05:36:48;18.65;;;9.88;;
78296;SDS011;67555;47.660;19.622;2023-04-24T05:39:15;22.27;;;10.32;;
78296;SDS011;67555;47.660;19.622;2023-04-24T05:41:41;17.55;;;9.80;;
78296;SDS011;67555;47.660;19.622;2023-04-24T05:44:07;17.02;;;10.57;;
78296;SDS011;67555;47.660;19.622;2023-04-24T05:46:32;21.63;;;11.52;;
78296;SDS011;67555;47.660;19.622;2023-04-24T05:48:58;16.17;;;10.43;;
78296;SDS011;67555;47.660;19.622;2023-04-24T05:51:24;21.67;;;10.50;;
78296;SDS011;67555;47.660;19.622;2023-04-24T05:53:50;20.67;;;10.32;;
78296;SDS011;67555;47.660;19.622;2023-04-24T05:56:16;20.08;;;9.95;;
78296;SDS011;67555;47.660;19.622;2023-04-24T05:58:42;24.58;;;11.48;;
78296;SDS011;67555;47.660;19.622;2023-04-24T06:01:08;21.25;;;10.68;;
78296;SDS011;67555;47.660;19.622;2023-04-24T06:03:34;19.02;;;10.70;;
78296;SDS011;67555;47.660;19.622;2023-04-24T06:06:00;18.95;;;9.82;;
78296;SDS011;67555;47.660;19.622;2023-04-24T06:08:26;19.10;;;9.88;;
78296;SDS011;67555;47.660;19.622;2023-04-24T06:10:51;23.95;;;10.95;;
78296;SDS011;67555;47.660;19.622;2023-04-24T06:13:17;17.60;;;9.93;;
78296;SDS011;67555;47.660;19.622;2023-04-24T06:15:43;17.63;;;10.23;;
78296;SDS011;67555;47.660;19.622;2023-04-24T06:18:09;17.48;;;10.15;;
78296;SDS011;67555;47.660;19.622;2023-04-24T06:20:37;20.40;;;9.70;;
78296;SDS011;67555;47.660;19.622;2023-04-24T06:23:04;17.13;;;9.57;;
78296;SDS011;67555;47.660;19.622;2023-04-24T06:25:29;19.30;;;9.75;;
78296;SDS011;67555;47.660;19.622;2023-04-24T06:27:55;18.50;;;10.10;;
78296;SDS011;67555;47.660;19.622;2023-04-24T06:30:22;16.77;;;9.40;;
78296;SDS011;67555;47.660;19.622;2023-04-24T06:32:48;20.27;;;9.65;;
78296;SDS011;67555;47.660;19.622;2023-04-24T06:35:13;17.95;;;10.43;;
78296;SDS011;67555;47.660;19.622;2023-04-24T06:37:39;22.35;;;9.77;;
78296;SDS011;67555;47.660;19.622;2023-04-24T06:40:06;20.25;;;9.85;;
78296;SDS011;67555;47.660;19.622;2023-04-24T06:42:32;21.85;;;10.02;;
78296;SDS011;67555;47.660;19.622;2023-04-24T06:44:59;18.98;;;10.43;;
78296;SDS011;67555;47.660;19.622;2023-04-24T06:47:25;18.58;;;9.90;;
78296;SDS011;67555;47.660;19.622;2023-04-24T06:49:51;18.75;;;10.05;;
78296;SDS011;67555;47.660;19.622;2023-04-24T06:52:17;16.30;;;9.45;;
78296;SDS011;67555;47.660;19.622;2023-04-24T06:54:44;16.55;;;8.93;;
78296;SDS011;67555;47.660;19.622;2023-04-24T06:57:09;17.17;;;9.50;;
78296;SDS011;67555;47.660;19.622;2023-04-24T06:59:35;15.32;;;9.30;;
78296;SDS011;67555;47.660;19.622;2023-04-24T07:02:01;17.58;;;9.60;;
78296;SDS011;67555;47.660;19.622;2023-04-24T07:04:28;19.00;;;10.15;;
78296;SDS011;67555;47.660;19.622;2023-04-24T07:06:54;18.90;;;9.65;;
78296;SDS011;67555;47.660;19.622;2023-04-24T07:09:23;18.70;;;10.50;;
78296;SDS011;67555;47.660;19.622;2023-04-24T07:11:53;16.92;;;10.23;;
78296;SDS011;67555;47.660;19.622;2023-04-24T07:14:21;18.38;;;9.73;;
78296;SDS011;67555;47.660;19.622;2023-04-24T07:16:47;17.98;;;9.05;;
78296;SDS011;67555;47.660;19.622;2023-04-24T07:19:13;18.27;;;9.05;;
78296;SDS011;67555;47.660;19.622;2023-04-24T07:21:39;18.02;;;9.57;;
78296;SDS011;67555;47.660;19.622;2023-04-24T07:24:06;19.10;;;9.30;;
78296;SDS011;67555;47.660;19.622;2023-04-24T07:26:35;19.02;;;8.98;;
78296;SDS011;67555;47.660;19.622;2023-04-24T07:29:02;19.05;;;9.98;;
78296;SDS011;67555;47.660;19.622;2023-04-24T07:31:27;15.50;;;9.23;;
78296;SDS011;67555;47.660;19.622;2023-04-24T07:33:53;19.27;;;9.88;;
78296;SDS011;67555;47.660;19.622;2023-04-24T07:36:19;18.40;;;10.00;;
78296;SDS011;67555;47.660;19.622;2023-04-24T07:38:45;17.15;;;9.70;;
78296;SDS011;67555;47.660;19.622;2023-04-24T07:41:12;17.73;;;9.65;;
78296;SDS011;67555;47.660;19.622;2023-04-24T07:43:38;20.73;;;9.07;;
78296;SDS011;67555;47.660;19.622;2023-04-24T07:46:04;15.07;;;9.32;;
78296;SDS011;67555;47.660;19.622;2023-04-24T07:48:30;19.83;;;10.55;;
78296;SDS011;67555;47.660;19.622;2023-04-24T07:50:56;16.23;;;9.93;;
78296;SDS011;67555;47.660;19.622;2023-04-24T07:53:22;17.65;;;10.18;;
78296;SDS011;67555;47.660;19.622;2023-04-24T07:55:47;22.67;;;10.50;;
78296;SDS011;67555;47.660;19.622;2023-04-24T07:58:13;21.73;;;10.48;;
78296;SDS011;67555;47.660;19.622;2023-04-24T08:00:39;14.02;;;9.05;;
78296;SDS011;67555;47.660;19.622;2023-04-24T08:03:04;17.25;;;9.90;;
78296;SDS011;67555;47.660;19.622;2023-04-24T08:05:30;14.25;;;9.43;;
78296;SDS011;67555;47.660;19.622;2023-04-24T08:07:56;15.68;;;9.35;;
78296;SDS011;67555;47.660;19.622;2023-04-24T08:10:22;22.38;;;9.98;;
78296;SDS011;67555;47.660;19.622;2023-04-24T08:12:48;17.67;;;9.43;;
78296;SDS011;67555;47.660;19.622;2023-04-24T08:15:13;21.02;;;10.50;;
78296;SDS011;67555;47.660;19.622;2023-04-24T08:17:39;18.92;;;9.75;;
78296;SDS011;67555;47.660;19.622;2023-04-24T08:20:05;21.60;;;10.88;;
78296;SDS011;67555;47.660;19.622;2023-04-24T08:22:35;22.63;;;10.23;;
78296;SDS011;67555;47.660;19.622;2023-04-24T08:25:01;20.20;;;10.48;;
78296;SDS011;67555;47.660;19.622;2023-04-24T08:27:27;20.33;;;10.90;;
78296;SDS011;67555;47.660;19.622;2023-04-24T08:29:53;22.00;;;11.13;;
78296;SDS011;67555;47.660;19.622;2023-04-24T08:32:19;17.83;;;9.88;;
78296;SDS011;67555;47.660;19.622;2023-04-24T08:34:45;24.50;;;10.30;;
78296;SDS011;67555;47.660;19.622;2023-04-24T08:37:11;20.02;;;11.15;;
78296;SDS011;67555;47.660;19.622;2023-04-24T08:39:37;20.42;;;10.80;;
78296;SDS011;67555;47.660;19.622;2023-04-24T08:42:03;17.00;;;9.75;;
78296;SDS011;67555;47.660;19.622;2023-04-24T08:44:33;23.25;;;11.55;;
78296;SDS011;67555;47.660;19.622;2023-04-24T08:47:01;21.67;;;10.98;;
78296;SDS011;67555;47.660;19.622;2023-04-24T08:49:28;18.73;;;10.48;;
78296;SDS011;67555;47.660;19.622;2023-04-24T08:51:54;20.33;;;10.23;;
78296;SDS011;67555;47.660;19.622;2023-04-24T08:54:20;17.85;;;9.75;;
78296;SDS011;67555;47.660;19.622;2023-04-24T08:56:47;23.85;;;10.45;;
78296;SDS011;67555;47.660;19.622;2023-04-24T08:59:16;18.92;;;10.52;;
78296;SDS011;67555;47.660;19.622;2023-04-24T09:01:43;20.63;;;10.77;;
78296;SDS011;67555;47.660;19.622;2023-04-24T09:04:11;24.83;;;10.52;;
78296;SDS011;67555;47.660;19.622;2023-04-24T09:06:40;20.25;;;10.98;;
78296;SDS011;67555;47.660;19.622;2023-04-24T09:09:06;22.23;;;11.60;;
78296;SDS011;67555;47.660;19.622;2023-04-24T09:11:33;18.38;;;11.10;;
78296;SDS011;67555;47.660;19.622;2023-04-24T09:13:59;25.75;;;12.10;;
78296;SDS011;67555;47.660;19.622;2023-04-24T09:16:26;21.73;;;10.95;;
78296;SDS011;67555;47.660;19.622;2023-04-24T09:18:52;20.50;;;11.20;;
78296;SDS011;67555;47.660;19.622;2023-04-24T09:21:19;17.98;;;10.50;;
78296;SDS011;67555;47.660;19.622;2023-04-24T09:23:46;21.25;;;11.52;;
78296;SDS011;67555;47.660;19.622;2023-04-24T09:26:24;19.70;;;10.88;;
78296;SDS011;67555;47.660;19.622;2023-04-24T09:28:50;18.73;;;11.23;;
78296;SDS011;67555;47.660;19.622;2023-04-24T09:31:17;21.83;;;11.52;;
78296;SDS011;67555;47.660;19.622;2023-04-24T09:34:02;23.42;;;10.52;;
78296;SDS011;67555;47.660;19.622;2023-04-24T09:36:37;18.27;;;10.40;;
78296;SDS011;67555;47.660;19.622;2023-04-24T09:39:05;19.55;;;10.50;;
78296;SDS011;67555;47.660;19.622;2023-04-24T09:41:33;19.20;;;11.10;;
78296;SDS011;67555;47.660;19.622;2023-04-24T09:44:12;21.10;;;11.90;;
78296;SDS011;67555;47.660;19.622;2023-04-24T09:46:40;17.08;;;10.95;;
78296;SDS011;67555;47.660;19.622;2023-04-24T09:49:12;24.10;;;11.20;;
78296;SDS011;67555;47.660;19.622;2023-04-24T09:51:40;18.95;;;9.98;;
78296;SDS011;67555;47.660;19.622;2023-04-24T09:54:16;20.98;;;10.70;;
78296;SDS011;67555;47.660;19.622;2023-04-24T09:56:44;18.70;;;11.35;;
78296;SDS011;67555;47.660;19.622;2023-04-24T09:59:11;20.38;;;10.30;;
78296;SDS011;67555;47.660;19.622;2023-04-24T10:01:37;17.83;;;10.02;;
78296;SDS011;67555;47.660;19.622;2023-04-24T10:04:06;21.95;;;11.10;;
78296;SDS011;67555;47.660;19.622;2023-04-24T10:06:42;25.50;;;11.27;;
78296;SDS011;67555;47.660;19.622;2023-04-24T10:09:08;20.17;;;11.43;;
78296;SDS011;67555;47.660;19.622;2023-04-24T10:11:36;22.02;;;10.60;;
78296;SDS011;67555;47.660;19.622;2023-04-24T10:14:06;18.52;;;11.07;;
78296;SDS011;67555;47.660;19.622;2023-04-24T10:16:33;24.67;;;11.00;;
78296;SDS011;67555;47.660;19.622;2023-04-24T10:19:00;19.38;;;10.48;;
78296;SDS011;67555;47.660;19.622;2023-04-24T10:21:26;17.67;;;10.80;;
78296;SDS011;67555;47.660;19.622;2023-04-24T10:23:52;20.60;;;11.05;;
78296;SDS011;67555;47.660;19.622;2023-04-24T10:26:19;23.92;;;11.05;;
78296;SDS011;67555;47.660;19.622;2023-04-24T10:28:45;17.67;;;10.35;;
78296;SDS011;67555;47.660;19.622;2023-04-24T10:31:12;22.75;;;11.43;;
78296;SDS011;67555;47.660;19.622;2023-04-24T10:33:39;21.77;;;11.52;;
78296;SDS011;67555;47.660;19.622;2023-04-24T10:36:07;22.23;;;11.07;;
78296;SDS011;67555;47.660;19.622;2023-04-24T10:38:35;23.55;;;12.05;;
78296;SDS011;67555;47.660;19.622;2023-04-24T10:41:10;23.13;;;11.95;;
78296;SDS011;67555;47.660;19.622;2023-04-24T10:43:45;25.15;;;11.35;;
78296;SDS011;67555;47.660;19.622;2023-04-24T10:46:16;19.77;;;10.98;;
78296;SDS011;67555;47.660;19.622;2023-04-24T10:48:51;19.75;;;11.35;;
78296;SDS011;67555;47.660;19.622;2023-04-24T10:51:20;22.20;;;11.93;;
78296;SDS011;67555;47.660;19.622;2023-04-24T10:54:21;27.48;;;12.65;;
78296;SDS011;67555;47.660;19.622;2023-04-24T10:56:50;23.23;;;10.98;;
78296;SDS011;67555;47.660;19.622;2023-04-24T10:59:26;21.58;;;11.75;;
78296;SDS011;67555;47.660;19.622;2023-04-24T11:01:59;21.27;;;11.63;;
78296;SDS011;67555;47.660;19.622;2023-04-24T11:04:31;20.25;;;10.93;;
78296;SDS011;67555;47.660;19.622;2023-04-24T11:06:58;24.98;;;11.82;;
78296;SDS011;67555;47.660;19.622;2023-04-24T11:09:28;19.60;;;12.50;;
78296;SDS011;67555;47.660;19.622;2023-04-24T11:12:06;19.95;;;10.90;;
78296;SDS011;67555;47.660;19.622;2023-04-24T11:20:08;20.95;;;11.38;;
78296;SDS011;67555;47.660;19.622;2023-04-24T11:22:41;18.45;;;11.23;;
78296;SDS011;67555;47.660;19.622;2023-04-24T11:25:07;26.50;;;12.23;;
78296;SDS011;67555;47.660;19.622;2023-04-24T11:27:41;19.27;;;10.55;;
78296;SDS011;67555;47.660;19.622;2023-04-24T11:30:08;20.92;;;11.85;;
78296;SDS011;67555;47.660;19.622;2023-04-24T11:32:39;22.98;;;11.10;;
78296;SDS011;67555;47.660;19.622;2023-04-24T11:35:07;20.95;;;11.07;;
78296;SDS011;67555;47.660;19.622;2023-04-24T11:37:42;26.92;;;12.45;;
78296;SDS011;67555;47.660;19.622;2023-04-24T11:40:12;18.90;;;11.15;;
78296;SDS011;67555;47.660;19.622;2023-04-24T11:42:45;23.60;;;11.68;;
78296;SDS011;67555;47.660;19.622;2023-04-24T11:45:18;23.35;;;12.13;;
78296;SDS011;67555;47.660;19.622;2023-04-24T11:47:51;17.63;;;11.38;;
78296;SDS011;67555;47.660;19.622;2023-04-24T11:50:17;21.33;;;11.80;;
78296;SDS011;67555;47.660;19.622;2023-04-24T11:52:45;23.08;;;11.73;;
78296;SDS011;67555;47.660;19.622;2023-04-24T11:57:48;21.33;;;11.80;;
78296;SDS011;67555;47.660;19.622;2023-04-24T12:00:18;21.00;;;11.73;;
78296;SDS011;67555;47.660;19.622;2023-04-24T12:02:44;21.77;;;11.98;;
78296;SDS011;67555;47.660;19.622;2023-04-24T12:05:25;27.27;;;12.93;;
78296;SDS011;67555;47.660;19.622;2023-04-24T12:07:52;24.77;;;12.00;;
78296;SDS011;67555;47.660;19.622;2023-04-24T12:10:22;25.45;;;12.25;;
78296;SDS011;67555;47.660;19.622;2023-04-24T12:12:49;26.10;;;14.43;;
78296;SDS011;67555;47.660;19.622;2023-04-24T12:15:16;21.00;;;12.48;;
78296;SDS011;67555;47.660;19.622;2023-04-24T12:17:47;21.48;;;13.00;;
78296;SDS011;67555;47.660;19.622;2023-04-24T12:20:13;28.25;;;14.27;;
78296;SDS011;67555;47.660;19.622;2023-04-24T12:23:12;24.10;;;13.68;;
78296;SDS011;67555;47.660;19.622;2023-04-24T12:25:31;27.75;;;13.52;;
78296;SDS011;67555;47.660;19.622;2023-04-24T12:30:30;21.85;;;12.63;;
78296;SDS011;67555;47.660;19.622;2023-04-24T12:32:58;26.40;;;12.43;;
78296;SDS011;67555;47.660;19.622;2023-04-24T12:35:26;25.08;;;13.02;;
78296;SDS011;67555;47.660;19.622;2023-04-24T12:37:53;23.77;;;13.02;;
78296;SDS011;67555;47.660;19.622;2023-04-24T12:40:20;20.50;;;12.38;;
78296;SDS011;67555;47.660;19.622;2023-04-24T12:42:47;26.05;;;13.25;;
78296;SDS011;67555;47.660;19.622;2023-04-24T12:45:15;23.73;;;12.30;;
78296;SDS011;67555;47.660;19.622;2023-04-24T12:47:42;21.92;;;11.75;;
78296;SDS011;67555;47.660;19.622;2023-04-24T12:50:09;25.45;;;12.82;;
78296;SDS011;67555;47.660;19.622;2023-04-24T12:52:37;28.00;;;12.52;;
78296;SDS011;67555;47.660;19.622;2023-04-24T12:55:04;20.67;;;12.30;;
78296;SDS011;67555;47.660;19.622;2023-04-24T12:57:33;22.65;;;12.10;;
78296;SDS011;67555;47.660;19.622;2023-04-24T13:00:00;21.65;;;12.20;;
78296;SDS011;67555;47.660;19.622;2023-04-24T13:02:29;23.02;;;12.60;;
78296;SDS011;67555;47.660;19.622;2023-04-24T13:04:56;24.02;;;12.60;;
78296;SDS011;67555;47.660;19.622;2023-04-24T13:07:25;23.65;;;13.07;;
78296;SDS011;67555;47.660;19.622;2023-04-24T13:09:52;22.85;;;12.57;;
78296;SDS011;67555;47.660;19.622;2023-04-24T13:12:19;27.90;;;13.27;;
78296;SDS011;67555;47.660;19.622;2023-04-24T13:14:45;22.08;;;13.27;;
78296;SDS011;67555;47.660;19.622;2023-04-24T13:17:11;32.33;;;12.95;;
78296;SDS011;67555;47.660;19.622;2023-04-24T13:19:41;30.92;;;13.23;;
78296;SDS011;67555;47.660;19.622;2023-04-24T13:22:12;29.67;;;13.43;;
78296;SDS011;67555;47.660;19.622;2023-04-24T13:24:38;31.38;;;13.35;;
78296;SDS011;67555;47.660;19.622;2023-04-24T13:27:07;41.70;;;16.02;;
78296;SDS011;67555;47.660;19.622;2023-04-24T13:29:34;43.60;;;14.38;;
78296;SDS011;67555;47.660;19.622;2023-04-24T13:32:00;37.17;;;12.70;;
78296;SDS011;67555;47.660;19.622;2023-04-24T13:34:26;25.35;;;10.77;;
78296;SDS011;67555;47.660;19.622;2023-04-24T13:36:56;20.98;;;9.50;;
78296;SDS011;67555;47.660;19.622;2023-04-24T13:39:23;32.97;;;11.73;;
78296;SDS011;67555;47.660;19.622;2023-04-24T13:41:50;29.05;;;11.40;;
78296;SDS011;67555;47.660;19.622;2023-04-24T13:44:16;28.70;;;15.07;;
78296;SDS011;67555;47.660;19.622;2023-04-24T13:46:43;28.48;;;16.83;;
78296;SDS011;67555;47.660;19.622;2023-04-24T13:49:11;34.83;;;18.40;;
78296;SDS011;67555;47.660;19.622;2023-04-24T13:51:37;14.90;;;7.75;;
78296;SDS011;67555;47.660;19.622;2023-04-24T13:54:03;17.77;;;7.35;;
78296;SDS011;67555;47.660;19.622;2023-04-24T13:56:30;15.13;;;8.07;;
78296;SDS011;67555;47.660;19.622;2023-04-24T13:58:56;39.35;;;16.35;;
78296;SDS011;67555;47.660;19.622;2023-04-24T14:01:21;25.80;;;10.02;;
78296;SDS011;67555;47.660;19.622;2023-04-24T14:03:51;16.92;;;8.48;;
78296;SDS011;67555;47.660;19.622;2023-04-24T14:06:20;16.02;;;8.18;;
78296;SDS011;67555;47.660;19.622;2023-04-24T14:08:48;16.00;;;7.90;;
78296;SDS011;67555;47.660;19.622;2023-04-24T14:11:15;13.35;;;6.07;;
78296;SDS011;67555;47.660;19.622;2023-04-24T14:13:41;10.32;;;6.13;;
78296;SDS011;67555;47.660;19.622;2023-04-24T14:16:08;15.60;;;7.65;;
78296;SDS011;67555;47.660;19.622;2023-04-24T14:18:34;20.13;;;8.32;;
78296;SDS011;67555;47.660;19.622;2023-04-24T14:20:59;13.68;;;7.28;;
78296;SDS011;67555;47.660;19.622;2023-04-24T14:23:26;13.13;;;6.38;;
78296;SDS011;67555;47.660;19.622;2023-04-24T14:25:52;10.85;;;5.15;;